Time;durP1;ratioP1;P1;durP2;ratioP2;P2;SDS_P1;SDS_P2;PMS_P1;PMS_P2;Temp;Humidity;BMP_temperature;BMP_pressure;BME280_temperature;BME280_humidity;BME280_pressure;Samples;Min_cycle;Max_cycle;Signal;HPM_P1;HPM_P2
2023/12/07 00:01:56;;;;;;;;;;;19.30;39.60;;;;;;5099780;28;19920;-57
2023/12/07 00:04:22;;;;;;;;;;;19.30;39.60;;;;;;5104484;28;19939;-58
2023/12/07 00:06:49;;;;;;;;;;;19.30;39.60;;;;;;5105208;28;19976;-57
2023/12/07 00:09:16;;;;;;;;;;;19.30;39.60;;;;;;5102065;28;19938;-57
2023/12/07 00:11:44;;;;;;;;;;;19.30;39.60;;;;;;5109804;28;19939;-57
2023/12/07 00:14:11;;;;;;;;;;;19.30;39.60;;;;;;5104708;28;19927;-57
2023/12/07 00:16:38;;;;;;;;;;;19.30;39.60;;;;;;5100155;28;19924;-57
2023/12/07 00:19:05;;;;;;;;;;;19.30;39.60;;;;;;5102544;28;19930;-57
2023/12/07 00:21:31;;;;;;;;;;;19.30;39.50;;;;;;5099877;28;19924;-57
2023/12/07 00:23:58;;;;;;;;;;;19.30;39.50;;;;;;5101312;28;19923;-57
2023/12/07 00:26:25;;;;;;;;;;;19.30;39.50;;;;;;5097765;28;20146;-57
2023/12/07 00:28:53;;;;;;;;;;;19.30;39.50;;;;;;5096850;28;19924;-57
2023/12/07 00:31:20;;;;;;;;;;;19.30;39.50;;;;;;5102351;28;19924;-56
2023/12/07 00:33:47;;;;;;;;;;;19.30;39.50;;;;;;5106208;27;19924;-57
2023/12/07 00:36:14;;;;;;;;;;;19.30;39.50;;;;;;5106339;28;19934;-53
2023/12/07 00:38:40;;;;;;;;;;;19.30;39.40;;;;;;5096207;28;19977;-55
2023/12/07 00:41:07;;;;;;;;;;;19.30;39.40;;;;;;5113697;28;19924;-56
2023/12/07 00:43:34;;;;;;;;;;;19.30;39.40;;;;;;5093369;28;19927;-56
2023/12/07 00:46:02;;;;;;;;;;;19.30;39.40;;;;;;5099539;28;19931;-56
2023/12/07 00:48:29;;;;;;;;;;;19.30;39.40;;;;;;5104396;28;19928;-54
2023/12/07 00:50:56;;;;;;;;;;;19.30;39.40;;;;;;5098347;28;19939;-57
2023/12/07 00:53:22;;;;;;;;;;;19.30;39.40;;;;;;5107374;28;19931;-56
2023/12/07 00:55:49;;;;;;;;;;;19.30;39.40;;;;;;5113005;28;19931;-57
2023/12/07 00:58:16;;;;;;;;;;;19.30;39.40;;;;;;5113455;28;19927;-55
2023/12/07 01:00:43;;;;;;;;;;;19.20;39.30;;;;;;5098262;28;19931;-57
2023/12/07 01:03:11;;;;;;;;;;;19.30;39.40;;;;;;5078734;28;20042;-55
2023/12/07 01:05:37;;;;;;;;;;;19.20;39.30;;;;;;5099364;28;20286;-57
2023/12/07 01:08:04;;;;;;;;;;;19.20;39.30;;;;;;5097820;28;19931;-55
2023/12/07 01:10:32;;;;;;;;;;;19.20;39.30;;;;;;5108201;28;19927;-57
2023/12/07 01:12:58;;;;;;;;;;;19.20;39.30;;;;;;5099013;28;19954;-56
2023/12/07 01:15:25;;;;;;;;;;;19.20;39.30;;;;;;5099275;28;19969;-57
2023/12/07 01:17:52;;;;;;;;;;;19.20;39.30;;;;;;5111705;28;19930;-57
2023/12/07 01:20:20;;;;;;;;;;;19.20;39.30;;;;;;5095062;28;19980;-56
2023/12/07 01:22:47;;;;;;;;;;;19.20;39.30;;;;;;5102783;28;19924;-56
2023/12/07 01:25:19;;;;;;;;;;;19.20;39.20;;;;;;5110238;28;19924;-56
2023/12/07 01:27:46;;;;;;;;;;;19.20;39.30;;;;;;5094751;28;19924;-57
2023/12/07 01:30:13;;;;;;;;;;;19.20;39.30;;;;;;5113087;28;20365;-57
2023/12/07 01:32:40;;;;;;;;;;;19.20;39.20;;;;;;5094647;28;19923;-55
2023/12/07 01:35:07;;;;;;;;;;;19.20;39.30;;;;;;5093897;28;19928;-57
2023/12/07 01:37:35;;;;;;;;;;;19.20;39.20;;;;;;5111913;28;19992;-57
2023/12/07 01:40:05;;;;;;;;;;;19.20;39.30;;;;;;5102160;28;19932;-55
2023/12/07 01:42:32;;;;;;;;;;;19.20;39.30;;;;;;5091734;28;20057;-55
2023/12/07 01:44:59;;;;;;;;;;;19.20;39.20;;;;;;5098179;28;19924;-57
2023/12/07 01:47:25;;;;;;;;;;;19.20;39.20;;;;;;5100302;28;19935;-57
2023/12/07 01:49:52;;;;;;;;;;;19.20;39.20;;;;;;5111570;28;19932;-53
2023/12/07 01:52:19;;;;;;;;;;;19.20;39.20;;;;;;5094484;28;19927;-55
2023/12/07 01:54:47;;;;;;;;;;;19.20;39.20;;;;;;5111556;28;20580;-57
2023/12/07 01:57:14;;;;;;;;;;;19.20;39.20;;;;;;5089423;28;19929;-57
2023/12/07 01:59:40;;;;;;;;;;;19.20;39.20;;;;;;5092366;28;19928;-56
2023/12/07 02:02:07;;;;;;;;;;;19.20;39.20;;;;;;5093099;28;19932;-56
2023/12/07 02:04:35;;;;;;;;;;;19.20;39.20;;;;;;5093547;28;19928;-57
2023/12/07 02:07:01;;;;;;;;;;;19.20;39.10;;;;;;5098721;28;19923;-53
2023/12/07 02:09:28;;;;;;;;;;;19.20;39.20;;;;;;5094231;28;19969;-56
2023/12/07 02:11:57;;;;;;;;;;;19.20;39.20;;;;;;5093945;28;20338;-57
2023/12/07 02:14:24;;;;;;;;;;;19.20;39.10;;;;;;5093382;28;20381;-57
2023/12/07 02:16:51;;;;;;;;;;;19.20;39.10;;;;;;5087694;28;19936;-57
2023/12/07 02:19:23;;;;;;;;;;;19.20;39.10;;;;;;5094888;28;19931;-55
2023/12/07 02:21:51;;;;;;;;;;;19.20;39.10;;;;;;5097442;28;19972;-57
2023/12/07 02:24:18;;;;;;;;;;;19.20;39.10;;;;;;5094431;28;19924;-56
2023/12/07 02:26:46;;;;;;;;;;;19.20;39.10;;;;;;5102546;28;19968;-57
2023/12/07 02:29:13;;;;;;;;;;;19.20;39.10;;;;;;5094468;28;19924;-56
2023/12/07 02:31:40;;;;;;;;;;;19.20;39.10;;;;;;5105186;28;19928;-57
2023/12/07 02:34:07;;;;;;;;;;;19.20;39.10;;;;;;5101231;28;19923;-56
2023/12/07 02:36:33;;;;;;;;;;;19.20;39.10;;;;;;5112204;28;19927;-57
2023/12/07 02:39:01;;;;;;;;;;;19.20;39.00;;;;;;5112165;28;19946;-56
2023/12/07 02:41:28;;;;;;;;;;;19.20;39.00;;;;;;5093953;28;19963;-57
2023/12/07 02:43:57;;;;;;;;;;;19.20;39.00;;;;;;5099608;28;19928;-55
2023/12/07 02:46:24;;;;;;;;;;;19.20;39.10;;;;;;5111237;28;19923;-56
2023/12/07 02:48:50;;;;;;;;;;;19.20;39.00;;;;;;5089516;28;19995;-58
2023/12/07 02:51:17;;;;;;;;;;;19.10;38.90;;;;;;5094104;28;19919;-58
2023/12/07 02:53:44;;;;;;;;;;;19.10;38.90;;;;;;5111877;28;19924;-57
2023/12/07 02:56:11;;;;;;;;;;;19.10;38.90;;;;;;5111964;28;19932;-57
2023/12/07 02:58:37;;;;;;;;;;;19.10;38.90;;;;;;5102023;28;19973;-57
2023/12/07 03:01:06;;;;;;;;;;;19.10;38.90;;;;;;5111210;28;20423;-53
2023/12/07 03:03:33;;;;;;;;;;;19.10;38.90;;;;;;5094355;28;19926;-57
2023/12/07 03:05:59;;;;;;;;;;;19.10;38.90;;;;;;5095349;28;19927;-56
2023/12/07 03:08:28;;;;;;;;;;;19.10;38.80;;;;;;5106539;28;19928;-57
2023/12/07 03:10:54;;;;;;;;;;;19.10;38.90;;;;;;5111927;28;19927;-57
2023/12/07 03:13:21;;;;;;;;;;;19.10;38.90;;;;;;5110863;28;19924;-57
2023/12/07 03:15:48;;;;;;;;;;;19.10;38.90;;;;;;5105880;28;19928;-57
2023/12/07 03:18:16;;;;;;;;;;;19.10;38.80;;;;;;5112009;28;19928;-57
2023/12/07 03:20:43;;;;;;;;;;;19.10;38.90;;;;;;5096741;28;19935;-56
2023/12/07 03:23:10;;;;;;;;;;;19.10;39.50;;;;;;5097425;28;19936;-56
2023/12/07 03:25:36;;;;;;;;;;;19.10;38.90;;;;;;5099377;28;19931;-57
2023/12/07 03:28:03;;;;;;;;;;;19.10;38.90;;;;;;5113034;28;19930;-57
2023/12/07 03:30:30;;;;;;;;;;;19.10;38.90;;;;;;5102226;28;19924;-57
2023/12/07 03:32:57;;;;;;;;;;;19.10;38.80;;;;;;5105395;28;19928;-57
2023/12/07 03:35:25;;;;;;;;;;;19.10;38.80;;;;;;5098199;28;19927;-57
2023/12/07 03:37:52;;;;;;;;;;;19.10;38.80;;;;;;5099577;28;19923;-58
2023/12/07 03:40:18;;;;;;;;;;;19.10;38.80;;;;;;5097372;28;19924;-57
2023/12/07 03:42:45;;;;;;;;;;;19.10;38.80;;;;;;5114188;28;19920;-57
2023/12/07 03:45:12;;;;;;;;;;;19.10;38.80;;;;;;5096438;28;19924;-58
2023/12/07 03:47:39;;;;;;;;;;;19.10;38.80;;;;;;5096382;28;19924;-57
2023/12/07 03:50:06;;;;;;;;;;;19.10;38.80;;;;;;5114792;28;19996;-57
2023/12/07 03:52:34;;;;;;;;;;;19.10;38.80;;;;;;5096886;28;20006;-57
2023/12/07 03:55:01;;;;;;;;;;;19.10;38.80;;;;;;5096090;27;19927;-57
2023/12/07 03:57:28;;;;;;;;;;;19.10;38.80;;;;;;5114165;28;19943;-57
2023/12/07 03:59:55;;;;;;;;;;;19.10;38.80;;;;;;5095314;28;19924;-57
2023/12/07 04:02:21;;;;;;;;;;;19.10;38.80;;;;;;5095935;28;19928;-56
2023/12/07 04:04:48;;;;;;;;;;;19.10;38.80;;;;;;5109287;28;19977;-57
2023/12/07 04:07:15;;;;;;;;;;;19.10;38.70;;;;;;5108484;28;20431;-56
2023/12/07 04:09:43;;;;;;;;;;;19.10;38.70;;;;;;5096397;28;19924;-57
2023/12/07 04:12:10;;;;;;;;;;;19.10;38.70;;;;;;5095070;28;19982;-57
2023/12/07 04:14:36;;;;;;;;;;;19.10;38.70;;;;;;5114108;28;19928;-57
2023/12/07 04:17:03;;;;;;;;;;;19.10;38.70;;;;;;5104474;28;19923;-57
2023/12/07 04:19:30;;;;;;;;;;;19.10;38.70;;;;;;5094817;28;19930;-58
2023/12/07 04:21:57;;;;;;;;;;;19.10;38.70;;;;;;5101974;28;19935;-57
2023/12/07 04:24:23;;;;;;;;;;;19.10;38.70;;;;;;5113087;28;19927;-57
2023/12/07 04:26:52;;;;;;;;;;;19.10;38.70;;;;;;5113349;28;19969;-58
2023/12/07 04:29:18;;;;;;;;;;;19.10;38.70;;;;;;5108857;28;19923;-57
2023/12/07 04:31:45;;;;;;;;;;;19.10;38.70;;;;;;5086292;28;19923;-57
2023/12/07 04:34:12;;;;;;;;;;;19.10;38.70;;;;;;5077346;28;19959;-57
2023/12/07 04:36:39;;;;;;;;;;;19.10;38.70;;;;;;5113214;28;19935;-56
2023/12/07 04:39:05;;;;;;;;;;;19.10;38.70;;;;;;5093739;28;19924;-57
2023/12/07 04:41:32;;;;;;;;;;;19.10;38.70;;;;;;5103524;28;19927;-57
2023/12/07 04:44:00;;;;;;;;;;;19.10;38.70;;;;;;5113219;28;19973;-57
2023/12/07 04:46:28;;;;;;;;;;;19.10;38.70;;;;;;5112412;28;19934;-57
2023/12/07 04:48:55;;;;;;;;;;;19.10;38.70;;;;;;5103534;28;19924;-57
2023/12/07 04:51:21;;;;;;;;;;;19.10;38.70;;;;;;5113142;28;19924;-57
2023/12/07 04:53:48;;;;;;;;;;;19.10;38.70;;;;;;5099615;28;19923;-57
2023/12/07 04:56:15;;;;;;;;;;;19.10;38.70;;;;;;5103509;28;19924;-57
2023/12/07 04:58:42;;;;;;;;;;;19.10;38.70;;;;;;5084784;28;19931;-57
2023/12/07 05:01:10;;;;;;;;;;;19.10;38.60;;;;;;5094129;28;19924;-57
2023/12/07 05:03:36;;;;;;;;;;;19.10;38.70;;;;;;5094146;28;19977;-57
2023/12/07 05:06:03;;;;;;;;;;;19.10;38.70;;;;;;5095145;28;19965;-57
2023/12/07 05:08:31;;;;;;;;;;;19.10;38.70;;;;;;5097318;28;20551;-57
2023/12/07 05:10:58;;;;;;;;;;;19.10;38.60;;;;;;5105774;28;19928;-57
2023/12/07 05:13:25;;;;;;;;;;;19.10;38.70;;;;;;5103263;28;19924;-57
2023/12/07 05:15:52;;;;;;;;;;;19.10;38.70;;;;;;5093968;28;19962;-57
2023/12/07 05:18:20;;;;;;;;;;;19.10;38.60;;;;;;5111721;28;19924;-57
2023/12/07 05:20:47;;;;;;;;;;;19.10;38.60;;;;;;5098736;28;19936;-57
2023/12/07 05:23:14;;;;;;;;;;;19.10;38.60;;;;;;5094014;28;19924;-57
2023/12/07 05:25:41;;;;;;;;;;;19.10;38.60;;;;;;5112357;28;19969;-57
2023/12/07 05:28:07;;;;;;;;;;;19.10;38.60;;;;;;5110680;28;19934;-57
2023/12/07 05:30:34;;;;;;;;;;;19.10;38.60;;;;;;5111484;28;19927;-57
2023/12/07 05:33:01;;;;;;;;;;;19.10;38.60;;;;;;5111855;28;19924;-57
2023/12/07 05:35:29;;;;;;;;;;;19.10;38.60;;;;;;5094676;28;19928;-57
2023/12/07 05:37:56;;;;;;;;;;;19.10;38.60;;;;;;5094257;28;19923;-57
2023/12/07 05:40:23;;;;;;;;;;;19.10;38.60;;;;;;5102564;28;19946;-55
2023/12/07 05:42:50;;;;;;;;;;;19.10;38.60;;;;;;5093881;28;20323;-57
2023/12/07 05:45:17;;;;;;;;;;;19.10;38.60;;;;;;5112475;28;19985;-57
2023/12/07 05:47:43;;;;;;;;;;;19.10;38.60;;;;;;5099135;28;19924;-57
2023/12/07 05:50:10;;;;;;;;;;;19.10;38.60;;;;;;5094223;28;19928;-57
2023/12/07 05:52:38;;;;;;;;;;;19.10;38.60;;;;;;5124171;27;20151;-57
2023/12/07 05:55:06;;;;;;;;;;;19.10;38.60;;;;;;5093220;28;19928;-57
2023/12/07 05:57:32;;;;;;;;;;;19.10;38.50;;;;;;5093782;28;19954;-58
2023/12/07 05:59:59;;;;;;;;;;;19.10;38.50;;;;;;5092250;28;19924;-57
2023/12/07 06:02:26;;;;;;;;;;;19.10;38.50;;;;;;5104939;28;19938;-58
2023/12/07 06:04:53;;;;;;;;;;;19.10;38.50;;;;;;5091228;28;20364;-57
2023/12/07 06:07:19;;;;;;;;;;;19.10;38.50;;;;;;5099359;28;19924;-57
2023/12/07 06:09:48;;;;;;;;;;;19.10;38.50;;;;;;5111754;28;19927;-57
2023/12/07 06:12:14;;;;;;;;;;;19.10;38.60;;;;;;5094328;28;19946;-57
2023/12/07 06:14:41;;;;;;;;;;;19.10;38.60;;;;;;5094206;28;20003;-56
2023/12/07 06:17:08;;;;;;;;;;;19.10;38.50;;;;;;5111789;28;19928;-57
2023/12/07 06:19:35;;;;;;;;;;;19.10;38.60;;;;;;5093204;28;20282;-57
2023/12/07 06:22:02;;;;;;;;;;;19.10;38.60;;;;;;5087037;28;19973;-57
2023/12/07 06:24:28;;;;;;;;;;;19.10;38.60;;;;;;5093265;28;19976;-57
2023/12/07 06:26:57;;;;;;;;;;;19.10;38.60;;;;;;5092710;28;19924;-56
2023/12/07 06:29:24;;;;;;;;;;;19.10;38.60;;;;;;5093894;28;19924;-57
2023/12/07 06:31:50;;;;;;;;;;;19.10;38.60;;;;;;5094021;28;19927;-56
2023/12/07 06:34:17;;;;;;;;;;;19.10;38.70;;;;;;5102098;28;19924;-57
2023/12/07 06:36:44;;;;;;;;;;;19.10;38.70;;;;;;5093571;28;19923;-57
2023/12/07 06:39:11;;;;;;;;;;;19.10;38.70;;;;;;5093626;28;19970;-58
2023/12/07 06:41:37;;;;;;;;;;;19.10;39.30;;;;;;5089643;28;20022;-57
2023/12/07 06:44:06;;;;;;;;;;;19.10;38.70;;;;;;5094603;28;19925;-58
2023/12/07 06:46:32;;;;;;;;;;;19.10;38.70;;;;;;5093197;28;19924;-57
2023/12/07 06:49:02;;;;;;;;;;;19.10;38.70;;;;;;5093966;28;19973;-57
2023/12/07 06:51:28;;;;;;;;;;;19.10;38.70;;;;;;5095305;28;19942;-57
2023/12/07 06:53:55;;;;;;;;;;;19.00;38.60;;;;;;5113769;28;19924;-57
2023/12/07 06:56:22;;;;;;;;;;;19.10;38.70;;;;;;5101851;28;19927;-58
2023/12/07 06:58:48;;;;;;;;;;;19.10;38.70;;;;;;5099923;28;19932;-57
2023/12/07 07:01:17;;;;;;;;;;;19.10;38.70;;;;;;5106183;28;19924;-57
2023/12/07 07:03:43;;;;;;;;;;;19.10;38.70;;;;;;5095248;28;20285;-57
2023/12/07 07:06:10;;;;;;;;;;;19.10;38.70;;;;;;5104203;28;19946;-57
2023/12/07 07:08:37;;;;;;;;;;;19.10;38.70;;;;;;5098282;28;19927;-57
2023/12/07 07:11:11;;;;;;;;;;;19.10;38.70;;;;;;5101446;27;20377;-57
2023/12/07 07:13:37;;;;;;;;;;;19.10;38.70;;;;;;5098643;28;20285;-57
2023/12/07 07:16:05;;;;;;;;;;;19.10;38.70;;;;;;5093248;28;19928;-57
2023/12/07 07:18:33;;;;;;;;;;;19.10;38.70;;;;;;5100482;28;19947;-57
2023/12/07 07:20:59;;;;;;;;;;;19.00;38.60;;;;;;5099717;28;20277;-57
2023/12/07 07:23:26;;;;;;;;;;;19.10;38.70;;;;;;5098595;28;19924;-57
2023/12/07 07:25:53;;;;;;;;;;;19.10;38.70;;;;;;5105390;28;19953;-57
2023/12/07 07:28:20;;;;;;;;;;;19.10;38.70;;;;;;5096307;28;19931;-57
2023/12/07 07:30:47;;;;;;;;;;;19.10;38.60;;;;;;5103530;28;19931;-58
2023/12/07 07:33:13;;;;;;;;;;;19.10;38.60;;;;;;5101077;27;19935;-57
2023/12/07 07:35:41;;;;;;;;;;;19.10;38.60;;;;;;5105258;28;19927;-58
2023/12/07 07:38:08;;;;;;;;;;;19.00;38.50;;;;;;5102909;28;19928;-57
2023/12/07 07:40:35;;;;;;;;;;;19.10;38.60;;;;;;5102755;28;19930;-57
2023/12/07 07:43:02;;;;;;;;;;;19.00;38.50;;;;;;5110378;28;19924;-58
2023/12/07 07:45:29;;;;;;;;;;;19.00;38.50;;;;;;5105997;28;19935;-58
2023/12/07 07:47:56;;;;;;;;;;;19.00;38.50;;;;;;5106335;28;19931;-57
2023/12/07 07:50:23;;;;;;;;;;;19.10;38.60;;;;;;5113752;27;19932;-57
2023/12/07 07:52:51;;;;;;;;;;;19.10;38.60;;;;;;5099911;28;19927;-57
2023/12/07 07:55:18;;;;;;;;;;;19.10;38.60;;;;;;5105159;28;19923;-57
2023/12/07 07:57:44;;;;;;;;;;;19.10;38.70;;;;;;5097441;28;19955;-57
2023/12/07 08:00:13;;;;;;;;;;;19.10;38.60;;;;;;5112578;28;19923;-57
2023/12/07 08:02:40;;;;;;;;;;;19.00;38.50;;;;;;5101368;28;20327;-57
2023/12/07 08:05:07;;;;;;;;;;;19.00;38.50;;;;;;5098654;28;19928;-57
2023/12/07 08:07:34;;;;;;;;;;;19.10;38.60;;;;;;5103421;28;20342;-57
2023/12/07 08:10:03;;;;;;;;;;;19.00;38.50;;;;;;5100853;28;19932;-57
2023/12/07 08:12:30;;;;;;;;;;;19.00;38.50;;;;;;5100152;28;19932;-56
2023/12/07 08:14:56;;;;;;;;;;;19.10;38.60;;;;;;5107271;28;19985;-57
2023/12/07 08:17:25;;;;;;;;;;;19.00;38.50;;;;;;5095325;28;19923;-57
2023/12/07 08:19:51;;;;;;;;;;;19.00;38.50;;;;;;5101095;28;20019;-57
2023/12/07 08:22:18;;;;;;;;;;;19.00;38.50;;;;;;5097159;28;19927;-57
2023/12/07 08:24:47;;;;;;;;;;;19.10;38.60;;;;;;5102497;28;20019;-57
2023/12/07 08:27:15;;;;;;;;;;;19.00;38.50;;;;;;5102473;28;19930;-57
2023/12/07 08:29:42;;;;;;;;;;;19.10;38.60;;;;;;5108968;28;19931;-57
2023/12/07 08:32:09;;;;;;;;;;;19.10;38.70;;;;;;5113680;28;19923;-57
2023/12/07 08:34:37;;;;;;;;;;;19.10;38.60;;;;;;5113559;28;19924;-57
2023/12/07 08:37:04;;;;;;;;;;;19.10;38.60;;;;;;5102852;28;19990;-58
2023/12/07 08:39:30;;;;;;;;;;;19.10;38.60;;;;;;5099756;28;19932;-57
2023/12/07 08:41:57;;;;;;;;;;;19.10;38.70;;;;;;5099172;28;19969;-57
2023/12/07 08:44:25;;;;;;;;;;;19.10;38.70;;;;;;5112525;28;19943;-57
2023/12/07 08:46:52;;;;;;;;;;;19.10;38.60;;;;;;5112317;28;20014;-57
2023/12/07 08:49:19;;;;;;;;;;;19.10;38.70;;;;;;5102402;28;19938;-57
2023/12/07 08:51:46;;;;;;;;;;;19.10;38.60;;;;;;5111626;28;19928;-56
2023/12/07 08:54:12;;;;;;;;;;;19.10;38.70;;;;;;5102889;28;19924;-58
2023/12/07 08:56:39;;;;;;;;;;;19.10;38.70;;;;;;5098541;28;19924;-57
2023/12/07 08:59:06;;;;;;;;;;;19.10;38.70;;;;;;5111613;28;19924;-58
2023/12/07 09:01:34;;;;;;;;;;;19.10;38.60;;;;;;5090381;28;19932;-58
2023/12/07 09:04:01;;;;;;;;;;;19.10;38.60;;;;;;5103130;28;19931;-57
2023/12/07 09:06:27;;;;;;;;;;;19.10;38.70;;;;;;5097949;28;19950;-58
2023/12/07 09:08:55;;;;;;;;;;;19.10;38.40;;;;;;5105818;28;19974;-58
2023/12/07 09:11:21;;;;;;;;;;;19.10;36.70;;;;;;5102859;28;19928;-57
2023/12/07 09:13:48;;;;;;;;;;;19.00;35.90;;;;;;5103246;28;19977;-61
2023/12/07 09:16:15;;;;;;;;;;;19.00;36.10;;;;;;5111498;28;19932;-58
2023/12/07 09:18:45;;;;;;;;;;;19.00;36.10;;;;;;5108250;28;19970;-56
2023/12/07 09:21:11;;;;;;;;;;;19.00;36.20;;;;;;5112824;28;19928;-57
2023/12/07 09:23:38;;;;;;;;;;;18.90;35.60;;;;;;5096660;28;20373;-57
2023/12/07 09:26:05;;;;;;;;;;;18.90;35.90;;;;;;5112231;28;20426;-57
2023/12/07 09:28:32;;;;;;;;;;;18.90;36.10;;;;;;5112788;28;19984;-58
2023/12/07 09:30:59;;;;;;;;;;;18.90;36.30;;;;;;5104938;28;19970;-57
2023/12/07 09:33:26;;;;;;;;;;;18.90;36.50;;;;;;5095046;28;19924;-57
2023/12/07 09:35:54;;;;;;;;;;;18.90;36.70;;;;;;5102926;28;19923;-57
2023/12/07 09:38:21;;;;;;;;;;;18.90;36.80;;;;;;5112647;28;19996;-57
2023/12/07 09:40:48;;;;;;;;;;;18.90;36.90;;;;;;5111671;28;19977;-58
2023/12/07 09:43:14;;;;;;;;;;;18.90;37.00;;;;;;5093558;28;19932;-58
2023/12/07 09:45:41;;;;;;;;;;;18.90;37.00;;;;;;5112387;28;19973;-57
2023/12/07 09:48:08;;;;;;;;;;;18.90;37.10;;;;;;5112431;27;19953;-59
2023/12/07 09:50:35;;;;;;;;;;;18.90;37.20;;;;;;5100045;28;19973;-58
2023/12/07 09:53:04;;;;;;;;;;;18.90;37.30;;;;;;5098752;28;19973;-57
2023/12/07 09:55:30;;;;;;;;;;;18.90;37.30;;;;;;5093846;28;19973;-57
2023/12/07 09:57:58;;;;;;;;;;;18.90;37.30;;;;;;5100323;28;19977;-56
2023/12/07 10:00:25;;;;;;;;;;;19.00;37.50;;;;;;5112074;28;20023;-58
2023/12/07 10:02:52;;;;;;;;;;;19.00;37.60;;;;;;5111936;28;19943;-58
2023/12/07 10:05:19;;;;;;;;;;;19.00;37.60;;;;;;5094614;28;19973;-57
2023/12/07 10:07:47;;;;;;;;;;;19.00;37.70;;;;;;5097995;28;19924;-57
2023/12/07 10:10:15;;;;;;;;;;;19.00;37.70;;;;;;5094452;28;19924;-57
2023/12/07 10:12:46;;;;;;;;;;;19.00;37.80;;;;;;5096197;28;19928;-58
2023/12/07 10:15:13;;;;;;;;;;;19.00;37.80;;;;;;5096802;28;19923;-58
2023/12/07 10:17:47;;;;;;;;;;;19.00;37.80;;;;;;5096614;28;19934;-58
2023/12/07 10:20:15;;;;;;;;;;;19.00;37.90;;;;;;5102219;28;19927;-56
2023/12/07 10:22:42;;;;;;;;;;;19.00;37.80;;;;;;5094749;28;19979;-57
2023/12/07 10:25:08;;;;;;;;;;;19.00;37.50;;;;;;5101007;28;19973;-61
2023/12/07 10:27:38;;;;;;;;;;;19.00;37.30;;;;;;5100392;28;19928;-59
2023/12/07 10:30:06;;;;;;;;;;;19.00;37.10;;;;;;5099862;28;20381;-62
2023/12/07 10:32:33;;;;;;;;;;;19.00;37.00;;;;;;5116303;28;20010;-58
2023/12/07 10:35:01;;;;;;;;;;;18.90;36.90;;;;;;5097760;28;19987;-56
2023/12/07 10:37:27;;;;;;;;;;;18.90;36.90;;;;;;5115767;28;20000;-56
2023/12/07 10:39:55;;;;;;;;;;;18.90;36.90;;;;;;5111363;28;19924;-60
2023/12/07 10:42:22;;;;;;;;;;;18.90;37.00;;;;;;5088729;28;19967;-58
2023/12/07 10:44:51;;;;;;;;;;;18.90;37.00;;;;;;5098731;28;19931;-59
2023/12/07 10:47:18;;;;;;;;;;;18.90;36.90;;;;;;5101582;28;19924;-57
2023/12/07 10:49:45;;;;;;;;;;;18.90;36.80;;;;;;5099719;28;19924;-59
2023/12/07 10:52:13;;;;;;;;;;;18.80;36.60;;;;;;5097329;28;19927;-58
2023/12/07 10:54:41;;;;;;;;;;;18.80;36.60;;;;;;5104876;28;20052;-57
2023/12/07 10:57:08;;;;;;;;;;;18.80;36.50;;;;;;5113467;28;19928;-58
2023/12/07 10:59:35;;;;;;;;;;;18.80;36.50;;;;;;5096568;28;19924;-62
2023/12/07 11:02:03;;;;;;;;;;;18.80;36.50;;;;;;5100392;28;20409;-61
2023/12/07 11:04:30;;;;;;;;;;;18.80;36.40;;;;;;5114845;28;20362;-59
2023/12/07 11:06:58;;;;;;;;;;;18.80;36.40;;;;;;5114930;28;19924;-57
2023/12/07 11:09:26;;;;;;;;;;;18.70;36.30;;;;;;5097003;28;19923;-58
2023/12/07 11:11:55;;;;;;;;;;;18.70;36.30;;;;;;5095562;28;19924;-59
2023/12/07 11:14:22;;;;;;;;;;;18.70;36.40;;;;;;5097110;28;19927;-54
2023/12/07 11:16:53;;;;;;;;;;;18.70;36.30;;;;;;5097313;28;19973;-58
2023/12/07 11:19:46;;;;;;;;;;;18.70;36.30;;;;;;5089731;28;19924;-58
2023/12/07 11:22:13;;;;;;;;;;;18.70;36.30;;;;;;5096732;28;19931;-58
2023/12/07 11:24:45;;;;;;;;;;;18.70;36.30;;;;;;5100145;28;19927;-60
2023/12/07 11:27:12;;;;;;;;;;;18.70;36.30;;;;;;5101678;28;19928;-60
2023/12/07 11:29:39;;;;;;;;;;;18.60;36.20;;;;;;5115108;28;19924;-59
2023/12/07 11:32:06;;;;;;;;;;;18.60;36.20;;;;;;5115454;28;19924;-60
2023/12/07 11:34:36;;;;;;;;;;;18.60;36.20;;;;;;5096944;28;19972;-60
2023/12/07 11:37:04;;;;;;;;;;;18.60;36.20;;;;;;5113368;28;19924;-58
2023/12/07 11:39:35;;;;;;;;;;;18.60;36.20;;;;;;5103266;28;19931;-60
2023/12/07 11:42:07;;;;;;;;;;;18.50;36.10;;;;;;5114704;28;19934;-58
2023/12/07 11:44:34;;;;;;;;;;;18.50;36.40;;;;;;5088845;28;19951;-59
2023/12/07 11:47:01;;;;;;;;;;;18.60;36.70;;;;;;5097106;28;19973;-59
2023/12/07 11:49:27;;;;;;;;;;;18.60;36.80;;;;;;5104609;28;20038;-59
2023/12/07 11:51:54;;;;;;;;;;;18.60;37.00;;;;;;5102158;28;19930;-59
2023/12/07 11:54:22;;;;;;;;;;;18.60;37.10;;;;;;5096883;28;19990;-59
2023/12/07 11:56:52;;;;;;;;;;;18.60;37.10;;;;;;5096728;28;19928;-59
2023/12/07 11:59:19;;;;;;;;;;;18.60;37.20;;;;;;5092680;28;20166;-58
2023/12/07 12:01:47;;;;;;;;;;;18.60;37.20;;;;;;5096147;28;20044;-59
2023/12/07 12:04:14;;;;;;;;;;;18.70;37.30;;;;;;5095868;28;19924;-60
2023/12/07 12:06:41;;;;;;;;;;;18.60;37.20;;;;;;5100950;28;19924;-59
2023/12/07 12:09:07;;;;;;;;;;;18.70;37.40;;;;;;5110124;28;19924;-59
2023/12/07 12:11:36;;;;;;;;;;;18.70;37.40;;;;;;5113401;28;19946;-59
2023/12/07 12:14:03;;;;;;;;;;;18.70;37.40;;;;;;5104110;28;19927;-59
2023/12/07 12:16:30;;;;;;;;;;;18.70;37.40;;;;;;5096256;28;19928;-59
2023/12/07 12:18:56;;;;;;;;;;;18.70;37.40;;;;;;5096458;28;19934;-59
2023/12/07 12:21:23;;;;;;;;;;;18.70;37.40;;;;;;5095789;28;19928;-59
2023/12/07 12:23:51;;;;;;;;;;;18.70;37.40;;;;;;5096244;28;19924;-60
2023/12/07 12:26:18;;;;;;;;;;;18.70;37.50;;;;;;5097989;28;19953;-59
2023/12/07 12:28:46;;;;;;;;;;;18.70;37.40;;;;;;5098799;28;19927;-60
2023/12/07 12:31:13;;;;;;;;;;;18.70;37.50;;;;;;5097182;28;19928;-59
2023/12/07 12:33:40;;;;;;;;;;;18.80;37.60;;;;;;5104743;28;19932;-59
2023/12/07 12:36:07;;;;;;;;;;;18.80;37.60;;;;;;5097359;28;19974;-59
2023/12/07 12:38:34;;;;;;;;;;;18.80;37.60;;;;;;5096401;28;19930;-59
2023/12/07 12:41:01;;;;;;;;;;;18.70;37.60;;;;;;5095894;28;19977;-59
2023/12/07 12:43:30;;;;;;;;;;;18.70;37.60;;;;;;5096362;28;19924;-59
2023/12/07 12:45:59;;;;;;;;;;;18.80;37.70;;;;;;5092634;28;20162;-59
2023/12/07 12:48:25;;;;;;;;;;;18.80;37.70;;;;;;5094201;28;19988;-59
2023/12/07 12:50:52;;;;;;;;;;;18.80;37.70;;;;;;5095323;28;19924;-59
2023/12/07 12:53:19;;;;;;;;;;;18.80;37.70;;;;;;5113598;28;19969;-57
2023/12/07 12:55:48;;;;;;;;;;;18.80;37.70;;;;;;5095295;28;20623;-59
2023/12/07 12:58:16;;;;;;;;;;;18.80;37.70;;;;;;5081258;28;19935;-59
2023/12/07 13:00:44;;;;;;;;;;;18.80;37.70;;;;;;5108129;28;19931;-57
2023/12/07 13:03:13;;;;;;;;;;;18.80;37.80;;;;;;5110594;28;19969;-59
2023/12/07 13:05:40;;;;;;;;;;;18.80;37.80;;;;;;5090920;28;19932;-60
2023/12/07 13:08:07;;;;;;;;;;;18.80;38.00;;;;;;5088188;28;19974;-60
2023/12/07 13:10:34;;;;;;;;;;;18.80;38.00;;;;;;5098899;28;19963;-56
2023/12/07 13:13:03;;;;;;;;;;;18.80;38.00;;;;;;5087245;28;19928;-57
2023/12/07 13:15:29;;;;;;;;;;;18.90;38.10;;;;;;5095913;28;19931;-59
2023/12/07 13:17:56;;;;;;;;;;;18.80;38.00;;;;;;5094240;28;19928;-58
2023/12/07 13:20:24;;;;;;;;;;;18.80;38.10;;;;;;5112448;28;19981;-59
2023/12/07 13:22:51;;;;;;;;;;;18.90;38.20;;;;;;5094462;28;19930;-60
2023/12/07 13:25:18;;;;;;;;;;;18.80;38.10;;;;;;5093232;28;19924;-60
2023/12/07 13:27:45;;;;;;;;;;;18.90;38.20;;;;;;5093560;28;19923;-59
2023/12/07 13:30:12;;;;;;;;;;;18.90;38.30;;;;;;5097420;28;19924;-59
2023/12/07 13:32:39;;;;;;;;;;;18.90;38.30;;;;;;5094527;28;19924;-60
2023/12/07 13:35:06;;;;;;;;;;;18.90;38.40;;;;;;5094412;28;19950;-59
2023/12/07 13:37:34;;;;;;;;;;;18.90;38.50;;;;;;5094126;28;19932;-60
2023/12/07 13:40:03;;;;;;;;;;;18.90;38.60;;;;;;5097342;28;19924;-59
2023/12/07 13:42:30;;;;;;;;;;;18.90;38.70;;;;;;5094212;28;19924;-59
2023/12/07 13:44:57;;;;;;;;;;;18.90;38.80;;;;;;5076902;28;19974;-58
2023/12/07 13:47:28;;;;;;;;;;;18.90;38.80;;;;;;5093763;28;19924;-60
2023/12/07 13:49:55;;;;;;;;;;;19.00;38.90;;;;;;5097991;28;19932;-60
2023/12/07 13:52:22;;;;;;;;;;;19.00;39.10;;;;;;5094030;28;19932;-56
2023/12/07 13:54:50;;;;;;;;;;;19.00;39.10;;;;;;5092821;28;19931;-58
2023/12/07 13:57:17;;;;;;;;;;;19.00;39.10;;;;;;5092336;28;20536;-58
2023/12/07 13:59:46;;;;;;;;;;;19.00;39.20;;;;;;5093680;28;19927;-60
2023/12/07 14:02:23;;;;;;;;;;;19.00;39.20;;;;;;5087889;28;19928;-58
2023/12/07 14:04:51;;;;;;;;;;;19.10;39.30;;;;;;5094532;28;19924;-59
2023/12/07 14:07:23;;;;;;;;;;;19.00;39.30;;;;;;5093781;28;19924;-60
2023/12/07 14:09:52;;;;;;;;;;;19.10;39.40;;;;;;5094931;28;19924;-58
2023/12/07 14:12:20;;;;;;;;;;;19.10;39.50;;;;;;5098120;28;19924;-58
2023/12/07 14:14:56;;;;;;;;;;;19.10;39.50;;;;;;5100607;28;19931;-59
2023/12/07 14:17:23;;;;;;;;;;;19.10;39.60;;;;;;5090434;28;19963;-59